POGODA: Poland

Lotnisko: Katowice

METAR KOD: EPKT


METAR: EPKT 251700Z 07003KT 9999 FEW040TCU 24/17 Q1014


BLOK
Pogoda METAR
251700Z
Dzien: 25, Godzina: 17:00 UTC.
07003KT
Wiatr z kierunku 070, o predkosci 6 km/h
9999
Widzialnosc pozioma ponad 10 km.
FEW040TCU
1/8 - 2/8 pokrycia nieba, chmurami o podstawie: 1200 metrow, cumulus congestus
24/17
Temperatura: powietrze 24°C, punkt rosy 17°C . Wilgotnosc wzgledna 71 %
Q1014
Cisnienie: 1014 hPa

Pogoda na innym lotnisku

Pogoda Gdansk-Rebiechowo WEATHER Poland  
Pogoda Katowice WEATHER Poland  
Pogoda Krakow WEATHER Poland  
Pogoda Poznan WEATHER Poland  
Pogoda Rzeszow-Jasionka WEATHER Poland  
Pogoda Szczecin WEATHER Poland  
Pogoda Warszawa-Okecie WEATHER Poland  
Pogoda Wroclaw Ii WEATHER Poland  

Pogoda w inny kraju

Strona startowa

(C) by GREGOR 2007
Ogłoszenia Towarzyskie